BEARDSLEY LAKE (BRD)

Elevation: 3398' · STANISLAUS R basin · Operator: US Bureau of Reclamation

Provisional data, subject to change.
Query executed Monday at 23:33:58   clock

Select a sensor type for a plot of data.
Note: Reservoir Flows are daily averages.

Earlier

Date STORAGE    RES CHG    OUTFLOW    PPT INC   
 AF   AF   CFS   INCHES  
08/02/2014 44643 -6 199 0.00
08/03/2014 44665 22 199 0.00
08/04/2014 44568 -97 198 0.03
08/05/2014 44552 -16 198 0.00
08/06/2014 44487 -65 199 0.00
08/07/2014 44412 -75 199 0.00
08/08/2014 44391 -21 199 0.00
08/09/2014 44311 -80 199 0.00
08/10/2014 44300 -11 199 0.00
08/11/2014 44359 59 198 0.00
08/12/2014 44337 -22 197 0.00
08/13/2014 44332 -5 195 0.00
08/14/2014 44252 -80 194 0.00
08/15/2014 44204 -48 200 0.00
08/16/2014 44065 -139 201 0.00
08/17/2014 44033 -32 199 0.00
08/18/2014 44059 26 198 0.00
08/19/2014 44006 -53 197 0.00
08/20/2014 43973 -33 197 0.00
08/21/2014 43883 -90 197 0.00
08/22/2014 43824 -59 198 0.00
08/23/2014 43706 -118 196 0.00
08/24/2014 43611 -95 197 0.00
08/25/2014 43600 -11 197 0.00
08/26/2014 43520 -80 196 0.00
08/27/2014 43472 -48 197 0.00
08/28/2014 43323 -149 197 0.00
08/29/2014 43318 -5 196 0.00
08/30/2014 43259 -59 196 0.00
08/31/2014 43159 -100 196 0.00
09/01/2014 -- -- -- --

Later | Latest

Warning! This data is preliminary and subject to revision.

Download Data Now Download Data Now | Show BRD Map | Plot BRD Data | 1 Month BRD Data | Real-Time BRD Data | BRD Info